createdAt,value
2022-10-31T00:01:26.219Z,5.50
2022-10-31T00:03:57.561Z,7.83
2022-10-31T00:06:26.098Z,8.00
2022-10-31T00:08:58.154Z,6.80
2022-10-31T00:11:26.447Z,7.20
2022-10-31T00:13:54.725Z,5.43
2022-10-31T00:16:24.113Z,5.73
2022-10-31T00:18:53.108Z,5.67
2022-10-31T00:21:22.559Z,5.10
2022-10-31T00:23:51.079Z,4.63
2022-10-31T00:26:21.064Z,5.33
2022-10-31T00:28:50.653Z,5.67
2022-10-31T00:31:19.089Z,5.53
2022-10-31T00:33:47.310Z,4.13
2022-10-31T00:36:18.057Z,4.77
2022-10-31T00:38:48.349Z,6.83
2022-10-31T00:41:18.881Z,3.57
2022-10-31T00:43:49.433Z,6.93
2022-10-31T00:46:17.999Z,8.00
2022-10-31T00:48:46.104Z,10.77
2022-10-31T00:51:14.180Z,10.43
2022-10-31T00:53:43.633Z,12.73
2022-10-31T00:56:11.684Z,9.83
2022-10-31T00:58:40.135Z,10.50
2022-10-31T01:01:10.428Z,10.93
2022-10-31T01:03:40.969Z,13.20
2022-10-31T01:06:11.250Z,8.77
2022-10-31T01:08:40.321Z,11.50
2022-10-31T01:11:12.042Z,9.83
2022-10-31T01:13:41.767Z,11.23
2022-10-31T01:16:14.087Z,10.87
2022-10-31T01:18:42.246Z,11.03
2022-10-31T01:21:14.331Z,11.00
2022-10-31T01:23:42.928Z,9.60
2022-10-31T01:26:15.356Z,10.83
2022-10-31T01:28:48.822Z,9.67
2022-10-31T01:31:19.854Z,7.47
2022-10-31T01:33:48.449Z,10.27
2022-10-31T01:36:19.666Z,12.60
2022-10-31T01:38:48.727Z,8.50
2022-10-31T01:41:20.106Z,5.50
2022-10-31T01:43:52.667Z,9.60
2022-10-31T01:46:26.161Z,12.47
2022-10-31T01:48:56.990Z,12.63
2022-10-31T01:51:31.090Z,10.73
2022-10-31T01:54:04.391Z,11.00
2022-10-31T01:56:41.106Z,7.07
2022-10-31T01:59:13.787Z,8.03
2022-10-31T02:01:43.602Z,8.73
2022-10-31T02:04:12.014Z,10.03
2022-10-31T02:06:45.771Z,7.77
2022-10-31T02:09:15.653Z,10.27
2022-10-31T02:11:46.653Z,12.83
2022-10-31T02:14:16.003Z,15.10
2022-10-31T02:16:45.468Z,11.50
2022-10-31T02:19:20.712Z,11.17
2022-10-31T02:21:56.709Z,8.27
2022-10-31T02:24:48.568Z,8.83
2022-10-31T02:27:44.848Z,8.63
2022-10-31T02:30:18.276Z,6.97
2022-10-31T02:33:13.403Z,7.83
2022-10-31T02:35:56.769Z,7.67
2022-10-31T02:38:33.886Z,10.83
2022-10-31T02:41:07.109Z,4.17
2022-10-31T02:43:41.059Z,4.17
2022-10-31T02:46:14.673Z,5.47
2022-10-31T02:48:47.112Z,7.47
2022-10-31T02:51:16.613Z,7.53
2022-10-31T02:53:44.704Z,9.00
2022-10-31T02:56:15.371Z,6.33
2022-10-31T02:58:50.152Z,6.93
2022-10-31T03:01:42.242Z,7.13
2022-10-31T03:04:31.627Z,4.93
2022-10-31T03:07:05.733Z,10.30
2022-10-31T03:09:40.756Z,11.53
2022-10-31T03:12:13.135Z,7.90
2022-10-31T03:14:45.670Z,8.73
2022-10-31T03:17:18.810Z,8.33
2022-10-31T03:19:50.532Z,10.77
2022-10-31T03:22:23.223Z,11.33
2022-10-31T03:24:53.125Z,11.53
2022-10-31T03:27:24.718Z,7.77
2022-10-31T03:29:55.439Z,9.10
2022-10-31T03:32:27.507Z,8.97
2022-10-31T03:35:00.900Z,7.50
2022-10-31T03:37:31.897Z,10.07
2022-10-31T03:40:02.630Z,11.10
2022-10-31T03:42:34.170Z,10.57
2022-10-31T03:45:07.267Z,8.57
2022-10-31T03:47:37.806Z,9.50
2022-10-31T03:50:10.196Z,10.80
2022-10-31T03:52:44.078Z,11.33
2022-10-31T03:55:20.575Z,7.83
2022-10-31T03:57:56.225Z,9.13
2022-10-31T04:00:25.361Z,8.40
2022-10-31T04:03:00.877Z,7.67
2022-10-31T04:05:34.793Z,9.07
2022-10-31T04:08:07.024Z,11.77
2022-10-31T04:10:37.429Z,12.17
2022-10-31T04:13:10.396Z,10.30
2022-10-31T04:15:41.397Z,8.57
2022-10-31T04:18:11.128Z,9.97
2022-10-31T04:20:42.851Z,11.13
2022-10-31T04:23:19.803Z,10.83
2022-10-31T04:25:48.843Z,10.83
2022-10-31T04:28:17.190Z,11.13
2022-10-31T04:30:45.271Z,11.53
2022-10-31T04:33:13.611Z,11.00
2022-10-31T04:35:43.940Z,12.93
2022-10-31T04:38:12.188Z,9.07
2022-10-31T04:40:40.375Z,10.70
2022-10-31T04:43:09.764Z,11.73
2022-10-31T04:45:39.318Z,9.33
2022-10-31T04:48:07.798Z,9.70
2022-10-31T04:50:36.069Z,9.97
2022-10-31T04:53:06.194Z,12.93
2022-10-31T04:55:34.860Z,12.77
2022-10-31T04:58:03.850Z,12.50
2022-10-31T05:00:32.357Z,12.83
2022-10-31T05:03:01.047Z,9.10
2022-10-31T05:05:32.375Z,9.27
2022-10-31T05:08:01.113Z,16.57
2022-10-31T05:10:32.160Z,14.57
2022-10-31T05:13:02.581Z,11.80
2022-10-31T05:15:33.175Z,12.70
2022-10-31T05:18:02.499Z,14.43
2022-10-31T05:20:32.913Z,13.07
2022-10-31T05:23:02.328Z,17.73
2022-10-31T05:25:32.114Z,21.50
2022-10-31T05:28:00.534Z,14.23
2022-10-31T05:30:30.660Z,17.90
2022-10-31T05:32:59.392Z,18.77
2022-10-31T05:35:29.702Z,13.03
2022-10-31T05:37:58.997Z,15.90
2022-10-31T05:40:29.923Z,18.60
2022-10-31T05:43:01.883Z,18.73
2022-10-31T05:45:31.165Z,17.07
2022-10-31T05:48:03.541Z,15.97
2022-10-31T05:50:33.978Z,18.43
2022-10-31T05:53:03.724Z,16.93
2022-10-31T05:55:33.298Z,20.03
2022-10-31T05:58:03.901Z,22.87
2022-10-31T06:00:32.047Z,24.83
2022-10-31T06:03:01.456Z,24.47
2022-10-31T06:05:30.113Z,33.87
2022-10-31T06:08:00.157Z,29.50
2022-10-31T06:10:29.188Z,28.93
2022-10-31T06:12:57.404Z,29.53
2022-10-31T06:15:28.100Z,26.67
2022-10-31T06:18:04.425Z,36.60
2022-10-31T06:20:33.154Z,25.60
2022-10-31T06:23:01.518Z,32.13
2022-10-31T06:25:30.561Z,23.10
2022-10-31T06:28:00.742Z,29.27
2022-10-31T06:30:30.484Z,32.20
2022-10-31T06:33:05.172Z,31.90
2022-10-31T06:35:34.868Z,32.10
2022-10-31T06:38:03.176Z,49.03
2022-10-31T06:40:32.132Z,36.00
2022-10-31T06:43:03.581Z,22.93
2022-10-31T06:45:33.669Z,25.63
2022-10-31T06:48:18.543Z,29.47
2022-10-31T06:50:47.565Z,20.37
2022-10-31T06:53:16.690Z,23.13
2022-10-31T06:55:45.400Z,22.77
2022-10-31T06:58:14.208Z,18.03
2022-10-31T07:00:46.622Z,20.03
2022-10-31T07:03:17.301Z,19.73
2022-10-31T07:05:46.389Z,23.60
2022-10-31T07:08:16.514Z,25.80
2022-10-31T07:10:52.760Z,21.10
2022-10-31T07:13:22.748Z,32.17
2022-10-31T07:15:52.863Z,19.63
2022-10-31T07:18:21.487Z,16.10
2022-10-31T07:20:50.493Z,14.97
2022-10-31T07:23:18.837Z,12.90
2022-10-31T07:25:46.900Z,17.30
2022-10-31T07:28:16.452Z,17.53
2022-10-31T07:30:44.862Z,16.73
2022-10-31T07:34:44.952Z,14.33
2022-10-31T07:37:15.895Z,13.73
2022-10-31T07:39:44.166Z,14.73
2022-10-31T07:42:12.410Z,17.07
2022-10-31T07:44:40.614Z,15.37
2022-10-31T07:47:09.037Z,14.90
2022-10-31T07:49:39.211Z,14.70
2022-10-31T07:52:07.752Z,14.67
2022-10-31T07:54:36.330Z,13.87
2022-10-31T07:57:04.503Z,14.57
2022-10-31T07:59:32.712Z,16.77
2022-10-31T08:03:13.728Z,14.77
2022-10-31T08:05:42.758Z,17.17
2022-10-31T08:08:12.315Z,17.07
2022-10-31T08:10:41.705Z,15.90
2022-10-31T08:13:12.279Z,18.30
2022-10-31T08:15:42.724Z,14.40
2022-10-31T08:18:16.414Z,16.93
2022-10-31T08:20:45.602Z,15.00
2022-10-31T08:23:15.231Z,16.27
2022-10-31T08:25:44.783Z,12.57
2022-10-31T08:28:14.671Z,16.67
2022-10-31T08:30:44.246Z,16.17
2022-10-31T08:33:16.691Z,14.30
2022-10-31T08:35:45.787Z,20.37
2022-10-31T08:38:15.445Z,19.90
2022-10-31T08:40:44.124Z,19.17
2022-10-31T08:43:15.068Z,17.60
2022-10-31T08:45:44.452Z,14.83
2022-10-31T08:48:15.331Z,17.13
2022-10-31T08:50:44.043Z,22.43
2022-10-31T08:53:14.667Z,21.20
2022-10-31T08:55:44.202Z,19.43
2022-10-31T08:58:14.141Z,19.50
2022-10-31T09:00:43.282Z,15.43
2022-10-31T09:03:15.272Z,17.57
2022-10-31T09:05:43.790Z,15.33
2022-10-31T09:08:16.775Z,18.07
2022-10-31T09:10:45.663Z,18.13
2022-10-31T09:13:15.928Z,17.60
2022-10-31T09:15:47.126Z,25.10
2022-10-31T09:18:19.554Z,14.43
2022-10-31T09:20:49.778Z,13.43
2022-10-31T09:23:19.688Z,16.93
2022-10-31T09:25:50.932Z,18.07
2022-10-31T09:28:21.357Z,16.07
2022-10-31T09:30:50.582Z,13.77
2022-10-31T09:33:22.793Z,19.37
2022-10-31T09:35:51.054Z,16.00
2022-10-31T09:38:21.389Z,13.67
2022-10-31T09:40:53.638Z,17.17
2022-10-31T09:43:32.162Z,16.17
2022-10-31T09:46:07.386Z,17.93
2022-10-31T09:48:56.055Z,13.27
2022-10-31T09:51:31.176Z,12.77
2022-10-31T09:54:05.834Z,12.33
2022-10-31T09:56:36.082Z,12.90
2022-10-31T09:59:07.260Z,13.20
2022-10-31T10:01:47.303Z,14.17
2022-10-31T10:07:19.373Z,16.67
2022-10-31T10:09:48.323Z,14.13
2022-10-31T10:12:25.140Z,13.73
2022-10-31T10:15:17.601Z,14.30
2022-10-31T10:17:56.031Z,20.37
2022-10-31T10:20:34.056Z,21.63
2022-10-31T10:23:22.434Z,16.57
2022-10-31T10:25:59.344Z,13.30
2022-10-31T10:28:39.304Z,9.70
2022-10-31T10:31:12.682Z,13.47
2022-10-31T10:33:46.751Z,13.00
2022-10-31T10:36:18.794Z,16.80
2022-10-31T10:38:53.395Z,9.90
2022-10-31T10:41:22.916Z,9.63
2022-10-31T10:43:52.875Z,12.17
2022-10-31T10:46:43.500Z,9.67
2022-10-31T10:49:19.539Z,9.10
2022-10-31T10:52:02.155Z,8.67
2022-10-31T10:55:02.636Z,8.40
2022-10-31T10:57:47.376Z,9.83
2022-10-31T11:00:21.718Z,7.30
2022-10-31T11:02:50.689Z,10.23
2022-10-31T11:05:37.763Z,11.70
2022-10-31T11:08:07.483Z,9.18
2022-10-31T11:10:37.975Z,7.45
2022-10-31T11:13:19.827Z,4.60
2022-10-31T11:15:55.707Z,6.53
2022-10-31T11:18:27.657Z,6.57
2022-10-31T11:20:58.030Z,5.17
2022-10-31T11:23:27.801Z,6.22
2022-10-31T11:26:01.247Z,5.27
2022-10-31T11:28:33.512Z,11.33
2022-10-31T11:31:07.466Z,10.17
2022-10-31T11:33:37.846Z,7.40
2022-10-31T11:36:18.495Z,6.70
2022-10-31T11:38:46.917Z,9.63
2022-10-31T11:41:20.205Z,7.53
2022-10-31T11:43:53.262Z,5.03
2022-10-31T11:46:26.752Z,6.28
2022-10-31T11:48:59.657Z,8.87
2022-10-31T11:51:31.106Z,9.63
2022-10-31T11:54:03.861Z,6.35
2022-10-31T11:56:45.084Z,8.18
2022-10-31T11:59:24.740Z,8.63
2022-10-31T12:01:55.806Z,5.60
2022-10-31T12:04:34.634Z,10.23
2022-10-31T12:07:03.822Z,6.18
2022-10-31T12:09:35.783Z,5.13
2022-10-31T12:12:50.944Z,5.85
2022-10-31T12:15:33.090Z,7.05
2022-10-31T12:18:34.495Z,8.38
2022-10-31T12:21:18.843Z,5.65
2022-10-31T12:23:56.645Z,6.10
2022-10-31T12:26:34.807Z,8.90
2022-10-31T12:29:24.156Z,7.70
2022-10-31T12:32:04.427Z,6.85
2022-10-31T12:34:56.660Z,4.03
2022-10-31T12:37:38.207Z,9.40
2022-10-31T12:40:28.946Z,10.80
2022-10-31T12:43:12.210Z,7.80
2022-10-31T12:45:57.816Z,6.70
2022-10-31T12:49:03.590Z,4.90
2022-10-31T12:51:42.796Z,10.43
2022-10-31T12:54:24.521Z,8.18
2022-10-31T12:57:04.078Z,5.40
2022-10-31T12:59:36.293Z,8.25
2022-10-31T13:02:17.431Z,7.60
2022-10-31T13:04:52.333Z,4.55
2022-10-31T13:07:32.046Z,5.63
2022-10-31T13:10:07.545Z,10.13
2022-10-31T13:12:37.855Z,6.90
2022-10-31T13:15:15.672Z,7.20
2022-10-31T13:17:49.946Z,3.95
2022-10-31T13:20:24.484Z,8.20
2022-10-31T13:22:56.850Z,7.85
2022-10-31T13:25:29.492Z,6.50
2022-10-31T13:28:01.925Z,8.75
2022-10-31T13:30:34.290Z,11.30
2022-10-31T13:33:09.029Z,6.78
2022-10-31T13:35:45.989Z,7.32
2022-10-31T13:38:24.709Z,10.45
2022-10-31T13:40:58.822Z,9.02
2022-10-31T13:43:36.681Z,6.43
2022-10-31T13:46:05.408Z,5.85
2022-10-31T13:48:43.698Z,6.13
2022-10-31T13:51:13.591Z,9.73
2022-10-31T13:53:47.141Z,5.87
2022-10-31T13:56:24.632Z,6.90
2022-10-31T13:59:16.100Z,13.02
2022-10-31T14:01:50.377Z,6.55
2022-10-31T14:04:25.941Z,10.18
2022-10-31T14:07:01.666Z,6.05
2022-10-31T14:09:36.171Z,7.70
2022-10-31T14:12:11.415Z,5.53
2022-10-31T14:14:48.887Z,8.43
2022-10-31T14:17:25.017Z,8.43
2022-10-31T14:20:02.312Z,6.68
2022-10-31T14:22:37.459Z,9.32
2022-10-31T14:25:33.473Z,12.65
2022-10-31T14:28:04.285Z,8.63
2022-10-31T14:30:33.305Z,5.78
2022-10-31T14:33:04.652Z,5.03
2022-10-31T14:35:51.766Z,6.13
2022-10-31T14:38:39.049Z,6.53
2022-10-31T14:41:33.187Z,6.25
2022-10-31T14:44:34.708Z,8.50
2022-10-31T14:47:14.986Z,6.67
2022-10-31T14:50:04.276Z,8.63
2022-10-31T14:52:35.108Z,8.53
2022-10-31T14:55:03.979Z,13.83
2022-10-31T14:57:37.527Z,8.98
2022-10-31T15:00:08.538Z,6.50
2022-10-31T15:02:42.661Z,14.03
2022-10-31T15:05:13.970Z,9.43
2022-10-31T15:07:53.682Z,6.77
2022-10-31T15:10:25.299Z,6.87
2022-10-31T15:12:54.489Z,10.27
2022-10-31T15:15:25.203Z,8.63
2022-10-31T15:17:56.710Z,10.93
2022-10-31T15:20:28.079Z,17.27
2022-10-31T15:22:59.613Z,12.53
2022-10-31T15:25:30.628Z,16.27
2022-10-31T15:27:59.476Z,10.27
2022-10-31T15:30:29.441Z,14.10
2022-10-31T15:32:58.961Z,15.23
2022-10-31T15:35:30.803Z,13.07
2022-10-31T15:38:03.419Z,15.23
2022-10-31T15:40:31.573Z,6.10
2022-10-31T15:43:04.447Z,9.07
2022-10-31T15:45:33.627Z,15.63
2022-10-31T15:48:04.811Z,8.10
2022-10-31T15:50:36.796Z,11.47
2022-10-31T15:53:07.974Z,10.27
2022-10-31T15:55:47.943Z,12.67
2022-10-31T15:58:18.605Z,10.00
2022-10-31T16:00:47.186Z,7.73
2022-10-31T16:03:26.730Z,5.10
2022-10-31T16:05:58.842Z,4.33
2022-10-31T16:08:39.351Z,11.47
2022-10-31T16:11:27.248Z,12.83
2022-10-31T16:13:58.389Z,13.17
2022-10-31T16:16:35.257Z,11.17
2022-10-31T16:19:09.334Z,12.77
2022-10-31T16:21:40.448Z,14.87
2022-10-31T16:24:21.008Z,13.63
2022-10-31T16:26:54.172Z,14.97
2022-10-31T16:29:29.169Z,15.13
2022-10-31T16:32:00.064Z,20.23
2022-10-31T16:34:31.426Z,15.27
2022-10-31T16:36:59.750Z,17.77
2022-10-31T16:39:29.947Z,17.20
2022-10-31T16:41:58.814Z,20.43
2022-10-31T16:44:28.818Z,15.27
2022-10-31T16:47:11.594Z,20.60
2022-10-31T16:49:40.214Z,15.63
2022-10-31T16:52:08.440Z,19.63
2022-10-31T16:54:38.460Z,14.50
2022-10-31T16:57:08.047Z,17.20
2022-10-31T16:59:36.896Z,16.30
2022-10-31T17:02:09.013Z,15.13
2022-10-31T17:04:39.841Z,15.83
2022-10-31T17:07:08.641Z,10.00
2022-10-31T17:09:38.853Z,14.23
2022-10-31T17:12:12.224Z,14.07
2022-10-31T17:14:40.638Z,14.67
2022-10-31T17:17:09.755Z,11.17
2022-10-31T17:19:37.650Z,12.20
2022-10-31T17:22:05.988Z,14.97
2022-10-31T17:24:33.847Z,11.83
2022-10-31T17:27:03.860Z,12.50
2022-10-31T17:29:32.703Z,13.23
2022-10-31T17:32:02.043Z,15.33
2022-10-31T17:34:30.060Z,9.63
2022-10-31T17:36:58.346Z,12.43
2022-10-31T17:39:26.436Z,12.27
2022-10-31T17:41:54.648Z,8.80
2022-10-31T17:44:25.747Z,15.60
2022-10-31T17:46:55.419Z,9.43
2022-10-31T17:49:23.656Z,7.70
2022-10-31T17:51:51.915Z,11.90
2022-10-31T17:54:22.851Z,8.53
2022-10-31T17:56:51.428Z,11.73
2022-10-31T17:59:19.964Z,13.00
2022-10-31T18:01:50.116Z,17.10
2022-10-31T18:04:18.114Z,8.90
2022-10-31T18:06:48.748Z,7.20
2022-10-31T18:09:17.066Z,20.60
2022-10-31T18:11:46.370Z,12.60
2022-10-31T18:14:14.625Z,21.43
2022-10-31T18:16:43.819Z,12.83
2022-10-31T18:19:14.883Z,10.70
2022-10-31T18:21:43.098Z,8.93
2022-10-31T18:24:11.363Z,10.53
2022-10-31T18:26:39.622Z,8.83
2022-10-31T18:29:10.584Z,10.77
2022-10-31T18:31:38.812Z,11.73
2022-10-31T18:34:06.960Z,9.80
2022-10-31T18:36:36.735Z,10.37
2022-10-31T18:39:04.762Z,15.50
2022-10-31T18:41:33.982Z,17.57
2022-10-31T18:44:01.979Z,15.33
2022-10-31T18:46:29.965Z,10.23
2022-10-31T18:48:58.028Z,14.37
2022-10-31T18:51:26.062Z,14.23
2022-10-31T18:53:57.394Z,13.97
2022-10-31T18:56:26.698Z,15.60
2022-10-31T18:58:55.257Z,16.07
2022-10-31T19:01:24.206Z,14.73
2022-10-31T19:03:56.395Z,14.57
2022-10-31T19:06:25.321Z,14.17
2022-10-31T19:09:01.200Z,16.93
2022-10-31T19:11:32.931Z,14.07
2022-10-31T19:14:02.654Z,15.40
2022-10-31T19:16:31.089Z,12.70
2022-10-31T19:19:00.235Z,14.43
2022-10-31T19:21:28.520Z,10.10
2022-10-31T19:23:58.327Z,11.60
2022-10-31T19:26:28.841Z,12.03
2022-10-31T19:28:58.808Z,10.40
2022-10-31T19:31:26.950Z,8.97
2022-10-31T19:33:55.065Z,9.03
2022-10-31T19:36:24.211Z,10.10
2022-10-31T19:38:54.094Z,4.37
2022-10-31T19:41:24.633Z,10.03
2022-10-31T19:43:55.108Z,8.57
2022-10-31T19:46:48.106Z,6.07
2022-10-31T19:49:14.568Z,6.70
2022-10-31T19:51:43.699Z,7.87
2022-10-31T19:54:12.596Z,8.90
2022-10-31T19:56:40.770Z,7.57
2022-10-31T19:59:10.307Z,7.97
2022-10-31T20:01:38.262Z,8.73
2022-10-31T20:04:06.971Z,7.33
2022-10-31T20:06:37.899Z,7.67
2022-10-31T20:09:10.543Z,9.17
2022-10-31T20:11:39.940Z,5.37
2022-10-31T20:14:12.116Z,6.17
2022-10-31T20:16:40.591Z,6.73
2022-10-31T20:19:08.844Z,8.00
2022-10-31T20:21:41.427Z,5.80
2022-10-31T20:24:11.833Z,6.37
2022-10-31T20:26:42.962Z,10.67
2022-10-31T20:29:16.094Z,6.37
2022-10-31T20:31:45.517Z,4.67
2022-10-31T20:34:13.636Z,6.00
2022-10-31T20:36:41.992Z,4.37
2022-10-31T20:39:11.164Z,5.33
2022-10-31T20:41:39.767Z,6.67
2022-10-31T20:44:08.039Z,5.80
2022-10-31T20:46:37.449Z,6.87
2022-10-31T20:49:05.726Z,6.63
2022-10-31T20:51:34.160Z,3.53
2022-10-31T20:54:02.707Z,7.03
2022-10-31T20:56:31.281Z,7.67
2022-10-31T20:58:59.792Z,8.07
2022-10-31T21:01:30.049Z,7.27
2022-10-31T21:04:00.826Z,8.90
2022-10-31T21:06:30.731Z,10.23
2022-10-31T21:09:01.202Z,7.87
2022-10-31T21:11:30.182Z,4.67
2022-10-31T21:14:00.509Z,6.33
2022-10-31T21:16:31.234Z,5.63
2022-10-31T21:19:02.294Z,3.83
2022-10-31T21:21:33.792Z,4.67
2022-10-31T21:24:04.875Z,3.97
2022-10-31T21:26:35.707Z,5.07
2022-10-31T21:29:05.452Z,4.90
2022-10-31T21:31:35.005Z,4.33
2022-10-31T21:34:05.366Z,7.27
2022-10-31T21:36:34.647Z,5.37
2022-10-31T21:39:02.941Z,4.73
2022-10-31T21:41:31.062Z,7.57
2022-10-31T21:44:00.361Z,4.93
2022-10-31T21:46:29.878Z,11.17
2022-10-31T21:48:58.568Z,5.83
2022-10-31T21:51:29.664Z,6.47
2022-10-31T21:54:17.111Z,6.03
2022-10-31T21:56:45.939Z,7.33
2022-10-31T21:59:14.555Z,8.13
2022-10-31T22:01:42.819Z,6.70
2022-10-31T22:04:10.956Z,7.10
2022-10-31T22:06:41.422Z,4.43
2022-10-31T22:09:11.950Z,6.40
2022-10-31T22:11:40.469Z,5.27
2022-10-31T22:14:08.994Z,5.60
2022-10-31T22:16:37.944Z,5.77
2022-10-31T22:19:11.967Z,6.10
2022-10-31T22:21:44.144Z,5.47
2022-10-31T22:24:13.149Z,9.77
2022-10-31T22:26:41.723Z,4.57
2022-10-31T22:29:20.152Z,5.73
2022-10-31T22:31:53.414Z,7.57
2022-10-31T22:34:27.045Z,6.30
2022-10-31T22:36:57.311Z,9.10
2022-10-31T22:39:25.626Z,9.17
2022-10-31T22:41:56.055Z,4.73
2022-10-31T22:44:24.687Z,4.70
2022-10-31T22:46:52.710Z,6.33
2022-10-31T22:49:20.966Z,5.47
2022-10-31T22:51:52.073Z,7.37
2022-10-31T22:54:21.869Z,9.43
2022-10-31T22:56:52.685Z,5.97
2022-10-31T22:59:21.716Z,6.40
2022-10-31T23:01:50.048Z,11.07
2022-10-31T23:04:18.226Z,4.63
2022-10-31T23:06:46.662Z,5.47
2022-10-31T23:09:18.687Z,8.10
2022-10-31T23:11:48.119Z,5.57
2022-10-31T23:14:21.056Z,7.67
2022-10-31T23:16:51.364Z,5.17
2022-10-31T23:19:22.722Z,6.37
2022-10-31T23:22:00.163Z,5.13
2022-10-31T23:24:33.775Z,4.10
2022-10-31T23:27:10.979Z,6.73
2022-10-31T23:29:43.657Z,6.90
2022-10-31T23:32:24.568Z,6.60
2022-10-31T23:34:54.581Z,6.30
2022-10-31T23:37:26.566Z,5.53
2022-10-31T23:39:55.424Z,7.33
2022-10-31T23:42:26.233Z,8.37
2022-10-31T23:44:54.827Z,8.20
2022-10-31T23:47:23.834Z,7.57
2022-10-31T23:49:52.714Z,7.63
2022-10-31T23:52:21.107Z,6.87
2022-10-31T23:54:49.267Z,8.33
2022-10-31T23:57:18.362Z,4.37
2022-10-31T23:59:48.021Z,5.13
